Time;durP1;ratioP1;P1;durP2;ratioP2;P2;SDS_P1;SDS_P2;PMS_P1;PMS_P2;Temp;Humidity;BMP_temperature;BMP_pressure;BME280_temperature;BME280_humidity;BME280_pressure;Samples;Min_cycle;Max_cycle;Signal;HPM_P1;HPM_P2
2023/04/12 00:02:22;;;;;;;18.35;11.32;;;14.00;78.30;;;;;;5113314;28;20023;-74
2023/04/12 00:04:54;;;;;;;19.15;10.98;;;13.90;78.30;;;;;;5112075;28;20016;-74
2023/04/12 00:07:23;;;;;;;16.52;10.10;;;13.90;78.80;;;;;;5111836;28;20023;-74
2023/04/12 00:09:50;;;;;;;19.23;11.07;;;13.80;78.60;;;;;;5113385;28;20051;-73
2023/04/12 00:12:18;;;;;;;15.38;10.40;;;13.80;78.70;;;;;;5113475;28;20357;-74
2023/04/12 00:14:44;;;;;;;21.23;11.00;;;13.80;79.00;;;;;;5113384;28;20109;-73
2023/04/12 00:17:11;;;;;;;17.45;11.27;;;13.80;79.20;;;;;;5113528;27;20110;-73
2023/04/12 00:19:40;;;;;;;24.13;11.80;;;13.80;79.40;;;;;;5113710;28;20051;-73
2023/04/12 00:22:07;;;;;;;16.63;11.38;;;13.70;79.40;;;;;;5113963;28;20027;-73
2023/04/12 00:24:33;;;;;;;19.02;12.05;;;13.60;79.40;;;;;;5113878;28;20031;-72
2023/04/12 00:27:00;;;;;;;19.45;11.05;;;13.60;79.20;;;;;;5113337;28;20429;-73
2023/04/12 00:29:27;;;;;;;19.92;11.82;;;13.60;79.80;;;;;;5113129;28;20047;-73
2023/04/12 00:31:52;;;;;;;23.08;11.63;;;13.60;79.60;;;;;;5113297;28;20071;-73
2023/04/12 00:34:18;;;;;;;16.92;11.30;;;13.60;79.50;;;;;;5113343;28;20362;-72
2023/04/12 00:36:44;;;;;;;15.68;11.23;;;13.60;79.80;;;;;;5112825;28;20496;-74
2023/04/12 00:39:10;;;;;;;19.90;10.90;;;13.50;79.70;;;;;;5113141;28;20078;-73
2023/04/12 00:41:36;;;;;;;21.45;11.48;;;13.50;79.70;;;;;;5113143;28;20055;-71
2023/04/12 00:44:03;;;;;;;16.35;10.75;;;13.50;79.70;;;;;;5113238;28;20417;-73
2023/04/12 00:46:29;;;;;;;18.80;11.07;;;13.50;79.80;;;;;;5113129;28;20027;-74
2023/04/12 00:48:56;;;;;;;19.98;11.30;;;13.40;79.80;;;;;;5112598;28;20460;-73
2023/04/12 00:51:24;;;;;;;21.52;11.73;;;13.40;79.70;;;;;;5112710;28;20045;-73
2023/04/12 00:53:52;;;;;;;17.58;11.15;;;13.40;79.90;;;;;;5112727;28;20015;-73
2023/04/12 00:56:18;;;;;;;19.17;11.13;;;13.40;79.90;;;;;;5112799;28;20024;-74
2023/04/12 00:58:44;;;;;;;20.10;12.63;;;13.40;79.90;;;;;;5112759;28;20024;-73
2023/04/12 01:01:10;;;;;;;19.75;12.50;;;13.30;79.90;;;;;;5112511;28;20035;-73
2023/04/12 01:03:41;;;;;;;18.73;10.80;;;13.30;79.90;;;;;;5112780;28;20330;-73
2023/04/12 01:06:19;;;;;;;17.23;10.20;;;13.30;80.00;;;;;;5112870;28;20020;-73
2023/04/12 01:09:00;;;;;;;20.48;11.48;;;13.20;80.60;;;;;;5116603;28;20169;-73
2023/04/12 01:11:36;;;;;;;18.15;11.02;;;13.20;80.30;;;;;;5117012;28;20024;-73
2023/04/12 01:14:13;;;;;;;19.88;11.20;;;13.20;80.40;;;;;;5117004;28;20016;-73
2023/04/12 01:16:45;;;;;;;24.40;10.90;;;13.20;80.50;;;;;;5116838;28;20031;-74
2023/04/12 01:19:35;;;;;;;16.55;10.88;;;13.20;80.70;;;;;;5116745;28;20095;-72
2023/04/12 01:22:01;;;;;;;17.92;11.57;;;13.10;80.70;;;;;;5115461;28;20075;-74
2023/04/12 01:25:02;;;;;;;15.65;10.65;;;13.10;80.00;;;;;;5116564;28;20085;-73
2023/04/12 01:27:43;;;;;;;20.08;11.57;;;13.10;80.60;;;;;;5102951;28;20045;-73
2023/04/12 01:30:12;;;;;;;19.13;10.77;;;13.00;80.20;;;;;;5116503;28;20338;-73
2023/04/12 01:32:39;;;;;;;21.90;11.00;;;13.00;80.10;;;;;;5116352;28;20107;-72
2023/04/12 01:35:07;;;;;;;17.10;10.25;;;13.00;80.20;;;;;;5116441;28;20023;-74
2023/04/12 01:37:34;;;;;;;21.30;10.93;;;13.00;80.40;;;;;;5114977;28;20540;-73
2023/04/12 01:40:01;;;;;;;19.63;11.60;;;13.00;80.10;;;;;;5116057;28;20061;-73
2023/04/12 01:42:27;;;;;;;20.50;9.93;;;13.10;80.30;;;;;;5116531;28;20433;-73
2023/04/12 01:44:53;;;;;;;19.92;9.93;;;13.00;80.20;;;;;;5116418;28;20015;-73
2023/04/12 01:47:18;;;;;;;17.20;11.02;;;13.00;80.50;;;;;;5116079;28;20023;-73
2023/04/12 01:50:15;;;;;;;14.70;10.07;;;13.00;80.20;;;;;;5116377;28;20024;-74
2023/04/12 01:52:48;;;;;;;14.00;9.80;;;13.00;81.00;;;;;;5113995;28;20110;-72
2023/04/12 01:55:15;;;;;;;18.58;10.18;;;13.00;80.40;;;;;;5115739;28;20031;-74
2023/04/12 01:57:44;;;;;;;16.75;9.15;;;13.00;80.60;;;;;;5116091;28;20020;-73
2023/04/12 02:00:11;;;;;;;13.65;8.52;;;13.00;80.00;;;;;;5115887;28;20481;-72
2023/04/12 02:02:38;;;;;;;15.23;9.05;;;13.00;80.40;;;;;;5115807;28;20423;-73
2023/04/12 02:05:07;;;;;;;12.32;8.18;;;13.00;80.10;;;;;;5115760;28;20085;-73
2023/04/12 02:07:34;;;;;;;11.90;8.57;;;12.90;80.00;;;;;;5115594;28;20473;-74
2023/04/12 02:09:59;;;;;;;16.77;8.45;;;12.80;80.10;;;;;;5115936;28;20031;-72
2023/04/12 02:12:25;;;;;;;13.38;7.90;;;12.80;80.30;;;;;;5115922;28;20026;-74
2023/04/12 02:14:51;;;;;;;15.32;8.90;;;12.70;80.00;;;;;;5115776;28;20384;-73
2023/04/12 02:17:17;;;;;;;16.00;8.25;;;12.70;80.20;;;;;;5115783;28;20019;-74
2023/04/12 02:19:43;;;;;;;15.90;8.35;;;12.70;80.20;;;;;;5114502;28;20449;-73
2023/04/12 02:22:09;;;;;;;15.60;9.52;;;12.70;80.20;;;;;;5115809;28;20030;-72
2023/04/12 02:24:34;;;;;;;14.65;9.65;;;12.70;80.00;;;;;;5115614;28;20062;-73
2023/04/12 02:27:00;;;;;;;15.85;8.93;;;12.60;80.10;;;;;;5115496;28;20019;-74
2023/04/12 02:29:26;;;;;;;16.27;8.35;;;12.70;80.10;;;;;;5115515;28;20031;-73
2023/04/12 02:31:52;;;;;;;14.75;8.80;;;12.60;80.30;;;;;;5115645;28;20103;-73
2023/04/12 02:34:18;;;;;;;12.13;6.95;;;12.50;80.40;;;;;;5113945;28;20035;-73
2023/04/12 02:36:48;;;;;;;13.35;7.65;;;12.50;80.60;;;;;;5115963;28;20015;-74
2023/04/12 02:39:17;;;;;;;13.85;7.93;;;12.40;80.70;;;;;;5116291;28;20051;-73
2023/04/12 02:41:44;;;;;;;10.93;7.43;;;12.40;80.60;;;;;;5115506;28;20020;-73
2023/04/12 02:44:09;;;;;;;14.05;7.60;;;12.30;80.60;;;;;;5116762;28;20020;-73
2023/04/12 02:46:35;;;;;;;12.77;7.35;;;12.30;80.80;;;;;;5115863;28;20100;-72
2023/04/12 02:49:01;;;;;;;14.02;8.02;;;12.30;80.40;;;;;;5116727;28;20032;-73
2023/04/12 02:51:27;;;;;;;13.80;8.50;;;12.30;80.20;;;;;;5116274;28;20024;-74
2023/04/12 02:53:52;;;;;;;12.18;8.00;;;12.30;80.70;;;;;;5114740;28;20041;-74
2023/04/12 02:56:20;;;;;;;11.88;7.78;;;12.30;80.60;;;;;;5114864;28;20016;-73
2023/04/12 02:58:46;;;;;;;15.32;7.88;;;12.20;80.80;;;;;;5114912;28;20445;-71
2023/04/12 03:01:13;;;;;;;12.68;7.47;;;12.20;81.00;;;;;;5114788;28;20103;-73
2023/04/12 03:03:39;;;;;;;14.35;7.70;;;12.20;81.00;;;;;;5114834;28;20030;-73
2023/04/12 03:06:07;;;;;;;15.05;8.13;;;12.20;81.20;;;;;;5115111;28;20030;-73
2023/04/12 03:08:33;;;;;;;12.40;8.00;;;12.10;81.00;;;;;;5114927;28;20358;-72
2023/04/12 03:10:59;;;;;;;16.63;7.90;;;12.00;81.30;;;;;;5114553;28;20027;-73
2023/04/12 03:13:24;;;;;;;12.05;7.82;;;12.00;81.70;;;;;;5114805;28;20024;-73
2023/04/12 03:15:57;;;;;;;15.38;7.68;;;12.00;81.80;;;;;;5114385;27;20027;-73
2023/04/12 03:18:22;;;;;;;17.20;8.38;;;12.00;81.70;;;;;;5114506;28;20097;-73
2023/04/12 03:20:49;;;;;;;10.18;7.85;;;11.90;81.90;;;;;;5114364;28;20055;-74
2023/04/12 03:23:14;;;;;;;13.60;7.10;;;11.90;81.80;;;;;;5114294;28;20111;-73
2023/04/12 03:25:41;;;;;;;13.18;7.85;;;11.90;81.80;;;;;;5114496;28;20449;-73
2023/04/12 03:28:07;;;;;;;15.13;7.95;;;11.90;81.60;;;;;;5115727;27;20027;-72
2023/04/12 03:30:33;;;;;;;11.48;7.75;;;11.90;81.70;;;;;;5114040;28;20465;-72
2023/04/12 03:32:59;;;;;;;10.18;7.88;;;11.90;81.50;;;;;;5114844;28;20012;-73
2023/04/12 03:35:24;;;;;;;14.55;7.72;;;11.90;81.50;;;;;;5114538;28;20028;-74
2023/04/12 03:37:50;;;;;;;11.23;7.45;;;11.90;81.60;;;;;;5114623;28;20027;-73
2023/04/12 03:40:16;;;;;;;13.68;6.90;;;11.90;81.50;;;;;;5113563;28;20042;-73
2023/04/12 03:42:41;;;;;;;12.75;7.40;;;12.00;81.40;;;;;;5113920;28;20019;-73
2023/04/12 03:45:07;;;;;;;10.45;6.72;;;12.00;81.40;;;;;;5115911;28;20027;-73
2023/04/12 03:47:34;;;;;;;16.55;7.70;;;12.00;81.20;;;;;;5114288;28;20473;-72
2023/04/12 03:50:05;;;;;;;12.65;7.47;;;11.90;81.20;;;;;;5113472;28;20131;-73
2023/04/12 03:52:32;;;;;;;11.85;7.40;;;11.90;81.30;;;;;;5113794;28;20024;-72
2023/04/12 03:54:57;;;;;;;11.48;6.95;;;11.90;81.50;;;;;;5113510;28;20027;-73
2023/04/12 03:57:23;;;;;;;11.45;7.45;;;11.90;81.50;;;;;;5113738;28;20036;-73
2023/04/12 03:59:49;;;;;;;11.30;7.10;;;11.90;81.20;;;;;;5113664;28;20098;-73
2023/04/12 04:02:14;;;;;;;12.70;7.47;;;11.90;81.20;;;;;;5113919;28;20114;-72
2023/04/12 04:04:40;;;;;;;12.77;7.95;;;11.90;81.40;;;;;;5113721;28;20059;-73
2023/04/12 04:07:06;;;;;;;11.30;7.70;;;11.90;81.20;;;;;;5113761;28;20031;-72
2023/04/12 04:09:33;;;;;;;12.88;8.13;;;11.90;81.00;;;;;;5112160;28;20404;-73
2023/04/12 04:12:00;;;;;;;13.25;8.85;;;11.90;81.10;;;;;;5111829;28;20031;-73
2023/04/12 04:14:26;;;;;;;11.35;8.10;;;11.90;81.10;;;;;;5113389;28;20038;-73
2023/04/12 04:16:52;;;;;;;13.23;8.75;;;11.90;81.10;;;;;;5112086;28;20024;-72
2023/04/12 04:19:18;;;;;;;15.38;9.00;;;11.90;81.40;;;;;;5113857;28;20085;-73
2023/04/12 04:21:44;;;;;;;12.82;8.75;;;11.90;81.00;;;;;;5113096;28;20518;-72
2023/04/12 04:24:10;;;;;;;14.75;8.98;;;11.90;81.20;;;;;;5113109;28;20030;-73
2023/04/12 04:26:37;;;;;;;12.57;8.80;;;11.80;81.20;;;;;;5112949;28;20374;-71
2023/04/12 04:29:04;;;;;;;20.75;9.00;;;11.90;81.40;;;;;;5112933;28;20505;-74
2023/04/12 04:31:33;;;;;;;11.32;7.47;;;11.90;80.80;;;;;;5113181;28;20073;-73
2023/04/12 04:34:05;;;;;;;16.48;8.55;;;11.90;80.50;;;;;;5113092;28;20027;-73
2023/04/12 04:36:33;;;;;;;11.65;7.72;;;12.00;80.40;;;;;;5112975;28;20020;-73
2023/04/12 04:38:59;;;;;;;13.57;8.15;;;12.00;80.20;;;;;;5112669;28;20061;-72
2023/04/12 04:41:25;;;;;;;16.92;8.60;;;12.00;79.80;;;;;;5112175;28;20071;-72
2023/04/12 04:43:52;;;;;;;12.55;7.60;;;12.00;79.60;;;;;;5111333;28;20019;-73
2023/04/12 04:46:20;;;;;;;14.65;8.07;;;12.00;79.30;;;;;;5111572;28;20054;-73
2023/04/12 04:48:50;;;;;;;16.73;8.27;;;12.00;79.10;;;;;;5112780;28;20031;-72
2023/04/12 04:51:17;;;;;;;14.88;8.00;;;12.00;79.30;;;;;;5112708;28;20065;-73
2023/04/12 04:53:42;;;;;;;11.35;8.10;;;12.00;78.80;;;;;;5112770;28;20095;-73
2023/04/12 04:56:09;;;;;;;13.02;7.65;;;12.00;79.00;;;;;;5113011;28;20176;-73
2023/04/12 04:58:35;;;;;;;13.57;8.30;;;11.90;78.80;;;;;;5112800;28;20031;-73
2023/04/12 05:01:02;;;;;;;14.32;8.00;;;11.90;79.10;;;;;;5113103;28;20047;-74
2023/04/12 05:03:28;;;;;;;11.63;8.35;;;12.00;79.20;;;;;;5112764;28;20028;-73
2023/04/12 05:05:55;;;;;;;9.80;7.18;;;12.00;79.30;;;;;;5112471;28;20090;-74
2023/04/12 05:08:21;;;;;;;13.13;7.60;;;12.00;79.10;;;;;;5112783;28;20034;-73
2023/04/12 05:10:51;;;;;;;11.95;7.88;;;12.00;79.30;;;;;;5112208;28;20032;-73
2023/04/12 05:13:17;;;;;;;11.32;7.13;;;12.00;79.10;;;;;;5112499;28;20059;-73
2023/04/12 05:15:43;;;;;;;13.43;8.02;;;12.10;79.20;;;;;;5112653;28;20094;-73
2023/04/12 05:18:08;;;;;;;13.10;7.95;;;12.10;78.80;;;;;;5112187;28;20058;-73
2023/04/12 05:20:37;;;;;;;12.57;7.53;;;12.20;79.00;;;;;;5112551;28;20016;-73
2023/04/12 05:23:03;;;;;;;13.75;7.43;;;12.30;78.40;;;;;;5112198;28;20099;-73
2023/04/12 05:25:29;;;;;;;14.48;6.85;;;12.30;78.10;;;;;;5112536;28;20068;-74
2023/04/12 05:27:54;;;;;;;12.55;6.32;;;12.40;77.90;;;;;;5110944;28;20435;-74
2023/04/12 05:30:20;;;;;;;13.27;6.78;;;12.40;77.90;;;;;;5112428;28;20038;-73
2023/04/12 05:32:46;;;;;;;11.38;6.38;;;12.40;77.90;;;;;;5112287;28;20745;-74
2023/04/12 05:35:12;;;;;;;12.32;7.15;;;12.40;77.60;;;;;;5112652;28;20024;-75
2023/04/12 05:37:37;;;;;;;19.15;8.68;;;12.40;77.40;;;;;;5112555;28;20103;-74
2023/04/12 05:40:06;;;;;;;15.60;8.88;;;12.40;77.40;;;;;;5112250;28;20512;-73
2023/04/12 05:42:31;;;;;;;11.32;6.10;;;12.50;77.50;;;;;;5112585;28;20023;-73
2023/04/12 05:44:57;;;;;;;9.05;6.35;;;12.50;77.20;;;;;;5112209;28;20050;-74
2023/04/12 05:47:23;;;;;;;9.57;6.25;;;12.40;77.00;;;;;;5112482;28;20027;-73
2023/04/12 05:49:48;;;;;;;8.13;5.90;;;12.40;76.80;;;;;;5112290;28;20036;-73
2023/04/12 05:52:14;;;;;;;12.50;6.40;;;12.60;76.80;;;;;;5111832;28;20048;-73
2023/04/12 05:54:40;;;;;;;10.70;5.85;;;12.80;76.30;;;;;;5115349;28;20032;-74
2023/04/12 05:57:06;;;;;;;13.40;7.07;;;12.90;75.90;;;;;;5115632;28;20019;-72
2023/04/12 05:59:32;;;;;;;10.70;6.93;;;13.10;75.70;;;;;;5116175;28;20023;-71
2023/04/12 06:01:58;;;;;;;13.13;6.22;;;13.20;74.90;;;;;;5115508;28;20376;-72
2023/04/12 06:04:25;;;;;;;11.50;6.05;;;13.20;74.50;;;;;;5115185;28;20028;-71
2023/04/12 06:06:50;;;;;;;11.85;6.88;;;13.20;74.70;;;;;;5113990;28;20073;-71
2023/04/12 06:09:16;;;;;;;9.52;6.15;;;13.30;74.80;;;;;;5115578;28;20024;-72
2023/04/12 06:11:42;;;;;;;14.48;6.60;;;13.30;74.50;;;;;;5115475;28;20028;-73
2023/04/12 06:14:08;;;;;;;11.57;6.95;;;13.40;74.40;;;;;;5115209;28;20484;-74
2023/04/12 06:16:34;;;;;;;12.55;6.53;;;13.60;74.20;;;;;;5115276;28;20035;-72
2023/04/12 06:18:59;;;;;;;12.60;6.97;;;13.70;73.60;;;;;;5115148;28;20388;-73
2023/04/12 06:21:26;;;;;;;18.23;7.60;;;13.90;73.70;;;;;;5114785;28;20520;-73
2023/04/12 06:23:51;;;;;;;12.73;6.88;;;14.10;73.40;;;;;;5115398;28;20027;-71
2023/04/12 06:26:17;;;;;;;11.02;7.22;;;14.40;72.50;;;;;;5115868;28;20024;-73
2023/04/12 06:28:43;;;;;;;14.68;7.65;;;14.60;71.80;;;;;;5115314;28;20112;-73
2023/04/12 06:31:09;;;;;;;14.07;7.25;;;14.80;71.30;;;;;;5115692;28;20046;-73
2023/04/12 06:33:35;;;;;;;13.52;6.93;;;15.00;70.80;;;;;;5115378;28;20086;-71
2023/04/12 06:36:01;;;;;;;13.45;6.65;;;15.20;70.00;;;;;;5114601;28;20127;-72
2023/04/12 06:38:27;;;;;;;11.65;6.40;;;15.20;69.10;;;;;;5114427;28;20428;-73
2023/04/12 06:40:53;;;;;;;14.52;7.10;;;15.40;69.00;;;;;;5113919;28;20027;-73
2023/04/12 06:43:19;;;;;;;12.27;7.07;;;15.50;68.90;;;;;;5115392;28;20061;-73
2023/04/12 06:45:45;;;;;;;16.15;6.60;;;15.60;67.80;;;;;;5115130;28;20024;-73
2023/04/12 06:48:11;;;;;;;17.00;6.70;;;15.80;68.00;;;;;;5114820;28;20023;-73
2023/04/12 06:50:36;;;;;;;14.73;7.20;;;16.00;67.30;;;;;;5113511;28;20179;-73
2023/04/12 06:53:02;;;;;;;15.90;7.40;;;16.20;67.20;;;;;;5114691;28;20027;-72
2023/04/12 06:55:28;;;;;;;20.73;7.43;;;16.30;66.30;;;;;;5114812;28;20076;-73
2023/04/12 06:57:54;;;;;;;22.13;7.82;;;16.40;65.90;;;;;;5114464;28;20477;-72
2023/04/12 07:00:20;;;;;;;14.45;6.82;;;16.50;65.90;;;;;;5114252;28;20431;-72
2023/04/12 07:02:46;;;;;;;14.13;6.50;;;16.60;66.00;;;;;;5114402;28;20024;-73
2023/04/12 07:05:12;;;;;;;17.80;7.28;;;16.80;65.30;;;;;;5113978;27;20334;-73
2023/04/12 07:07:38;;;;;;;15.00;7.18;;;16.90;65.10;;;;;;5114730;28;20051;-72
2023/04/12 07:10:04;;;;;;;12.93;6.25;;;17.00;65.20;;;;;;5114283;28;20132;-73
2023/04/12 07:12:30;;;;;;;16.55;5.55;;;17.20;65.20;;;;;;5114150;28;20032;-72
2023/04/12 07:14:55;;;;;;;12.73;6.60;;;17.40;65.00;;;;;;5114063;28;20016;-71
2023/04/12 07:17:22;;;;;;;17.42;6.13;;;17.40;64.60;;;;;;5113635;28;20102;-74
2023/04/12 07:19:49;;;;;;;13.52;6.80;;;17.60;64.70;;;;;;5114104;28;20027;-71
2023/04/12 07:22:14;;;;;;;15.15;6.60;;;17.70;64.30;;;;;;5114279;28;20095;-72
2023/04/12 07:24:40;;;;;;;12.73;5.97;;;17.80;64.10;;;;;;5114343;28;20069;-71
2023/04/12 07:27:06;;;;;;;12.25;6.45;;;18.00;64.00;;;;;;5114211;28;20039;-72
2023/04/12 07:29:31;;;;;;;15.02;6.25;;;18.10;63.60;;;;;;5114042;28;20024;-72
2023/04/12 07:31:59;;;;;;;14.30;5.22;;;18.20;63.60;;;;;;5112782;28;20066;-72
2023/04/12 07:34:24;;;;;;;12.20;5.15;;;18.20;63.10;;;;;;5114438;28;20579;-72
2023/04/12 07:36:50;;;;;;;9.75;5.30;;;18.40;62.90;;;;;;5114675;28;20056;-72
2023/04/12 07:39:16;;;;;;;10.00;6.63;;;18.50;62.60;;;;;;5114718;28;20044;-72
2023/04/12 07:41:45;;;;;;;12.88;6.15;;;18.50;62.00;;;;;;5114825;28;20019;-73
2023/04/12 07:44:11;;;;;;;12.98;5.30;;;18.60;61.50;;;;;;5112743;28;20016;-72
2023/04/12 07:46:37;;;;;;;7.47;4.18;;;18.60;60.80;;;;;;5114084;28;20503;-72
2023/04/12 07:49:03;;;;;;;9.68;4.25;;;18.60;60.60;;;;;;5114086;28;20050;-73
2023/04/12 07:51:29;;;;;;;10.00;4.18;;;18.70;60.30;;;;;;5114191;28;20488;-72
2023/04/12 07:53:55;;;;;;;13.85;4.40;;;18.70;60.10;;;;;;5113962;28;20031;-72
2023/04/12 07:56:21;;;;;;;14.20;5.63;;;18.60;59.70;;;;;;5113792;28;20019;-72
2023/04/12 07:58:47;;;;;;;12.07;4.63;;;18.60;59.70;;;;;;5112195;28;20028;-71
2023/04/12 08:01:14;;;;;;;12.85;5.00;;;18.50;59.10;;;;;;5113334;28;20415;-73
2023/04/12 08:03:40;;;;;;;10.18;4.75;;;18.50;59.10;;;;;;5113286;28;20379;-73
2023/04/12 08:06:06;;;;;;;10.75;4.57;;;18.50;59.40;;;;;;5113561;28;20024;-72
2023/04/12 08:08:32;;;;;;;12.40;4.25;;;18.50;59.30;;;;;;5114194;28;20080;-72
2023/04/12 08:10:58;;;;;;;10.38;5.45;;;18.40;59.20;;;;;;5114158;28;20035;-72
2023/04/12 08:13:24;;;;;;;13.48;5.38;;;18.30;58.90;;;;;;5113333;28;20023;-73
2023/04/12 08:15:49;;;;;;;12.45;5.05;;;18.30;59.20;;;;;;5112731;28;20032;-72
2023/04/12 08:18:15;;;;;;;13.10;4.18;;;18.20;59.20;;;;;;5111608;28;20034;-71
2023/04/12 08:20:42;;;;;;;9.75;3.88;;;18.20;59.30;;;;;;5113118;28;20098;-72
2023/04/12 08:23:09;;;;;;;8.02;3.55;;;18.20;59.50;;;;;;5113003;28;20023;-72
2023/04/12 08:25:35;;;;;;;16.77;4.63;;;18.10;59.20;;;;;;5112733;28;20028;-72
2023/04/12 08:28:02;;;;;;;11.82;4.35;;;18.10;59.50;;;;;;5113134;28;20081;-73
2023/04/12 08:30:28;;;;;;;10.30;4.00;;;18.10;59.70;;;;;;5112728;28;20036;-72
2023/04/12 08:32:54;;;;;;;9.48;3.80;;;18.10;59.80;;;;;;5112955;28;20030;-72
2023/04/12 08:35:21;;;;;;;12.10;4.70;;;18.10;59.70;;;;;;5112749;28;20028;-73
2023/04/12 08:37:47;;;;;;;10.40;4.55;;;18.10;59.30;;;;;;5112833;28;20016;-73
2023/04/12 08:40:13;;;;;;;12.10;3.78;;;18.10;59.60;;;;;;5112934;28;20122;-72
2023/04/12 08:42:40;;;;;;;9.05;3.95;;;18.10;59.70;;;;;;5113041;28;20509;-73
2023/04/12 08:45:08;;;;;;;10.80;3.88;;;18.10;59.50;;;;;;5112988;28;20024;-72
2023/04/12 08:47:35;;;;;;;11.07;3.70;;;18.10;59.70;;;;;;5112601;28;20047;-74
2023/04/12 08:50:02;;;;;;;8.60;3.58;;;18.10;59.40;;;;;;5112813;28;20035;-73
2023/04/12 08:52:28;;;;;;;9.68;3.58;;;18.10;59.30;;;;;;5112789;28;20075;-71
2023/04/12 08:54:57;;;;;;;10.73;3.50;;;18.20;59.50;;;;;;5112633;28;20059;-72
2023/04/12 08:57:23;;;;;;;9.10;3.72;;;18.20;59.60;;;;;;5112554;28;20520;-73
2023/04/12 08:59:50;;;;;;;10.40;3.40;;;18.20;59.80;;;;;;5111297;28;20107;-73
2023/04/12 09:02:16;;;;;;;7.55;3.53;;;18.20;59.50;;;;;;5112607;28;20081;-73
2023/04/12 09:04:52;;;;;;;11.05;4.10;;;18.20;59.60;;;;;;5112099;28;20024;-72
2023/04/12 09:07:22;;;;;;;12.10;4.32;;;18.20;59.50;;;;;;5111125;28;20334;-74
2023/04/12 09:09:49;;;;;;;11.57;4.63;;;18.30;59.90;;;;;;5112445;28;20124;-73
2023/04/12 09:12:16;;;;;;;9.73;4.38;;;18.30;59.20;;;;;;5112610;28;20045;-73
2023/04/12 09:14:45;;;;;;;12.73;4.72;;;18.30;59.20;;;;;;5111258;28;20031;-72
2023/04/12 09:17:24;;;;;;;10.40;4.10;;;18.30;59.70;;;;;;5112863;28;20026;-72
2023/04/12 09:19:50;;;;;;;10.93;4.45;;;18.40;59.30;;;;;;5112516;28;20020;-72
2023/04/12 09:22:16;;;;;;;10.38;5.13;;;18.40;59.10;;;;;;5112548;28;20423;-73
2023/04/12 09:24:50;;;;;;;15.57;4.75;;;18.40;59.00;;;;;;5112235;28;20095;-72
2023/04/12 09:27:19;;;;;;;13.07;5.80;;;18.40;59.20;;;;;;5112570;28;20032;-73
2023/04/12 09:29:50;;;;;;;11.18;4.10;;;18.50;59.10;;;;;;5116431;28;20503;-72
2023/04/12 09:32:27;;;;;;;9.88;4.65;;;18.50;58.80;;;;;;5116537;28;20411;-73
2023/04/12 09:34:57;;;;;;;8.73;3.92;;;18.60;58.40;;;;;;5116744;28;20024;-73
2023/04/12 09:37:23;;;;;;;8.65;3.60;;;18.60;58.10;;;;;;5116621;28;20038;-73
2023/04/12 09:40:00;;;;;;;6.38;3.63;;;18.60;58.10;;;;;;5116034;28;20058;-74
2023/04/12 09:42:27;;;;;;;5.72;3.05;;;18.60;57.70;;;;;;5116408;28;20030;-71
2023/04/12 09:44:53;;;;;;;8.07;3.80;;;18.70;57.70;;;;;;5116405;28;20027;-73
2023/04/12 09:47:19;;;;;;;7.43;3.35;;;18.70;57.70;;;;;;5116306;28;20115;-72
2023/04/12 09:49:45;;;;;;;8.73;3.47;;;18.80;57.40;;;;;;5116017;28;20055;-73
2023/04/12 09:52:12;;;;;;;6.82;3.25;;;18.80;57.50;;;;;;5114668;28;20062;-73
2023/04/12 09:54:47;;;;;;;19.83;4.38;;;18.90;57.20;;;;;;5116069;28;20031;-72
2023/04/12 09:57:17;;;;;;;8.27;3.47;;;19.00;58.80;;;;;;5116075;28;20534;-72
2023/04/12 09:59:47;;;;;;;6.20;3.15;;;19.10;57.60;;;;;;5116249;28;20046;-73
2023/04/12 10:02:25;;;;;;;8.40;3.92;;;19.20;57.20;;;;;;5115989;28;20069;-73
2023/04/12 10:04:51;;;;;;;11.30;3.67;;;19.30;57.30;;;;;;5116022;28;20019;-72
2023/04/12 10:07:18;;;;;;;7.20;3.17;;;19.30;57.60;;;;;;5115613;28;20073;-73
2023/04/12 10:09:44;;;;;;;11.15;3.33;;;19.40;57.60;;;;;;5115833;28;20403;-73
2023/04/12 10:12:10;;;;;;;6.68;2.90;;;19.50;57.80;;;;;;5115569;28;20389;-70
2023/04/12 10:14:37;;;;;;;9.40;3.47;;;19.60;57.30;;;;;;5115667;28;20489;-72
2023/04/12 10:17:04;;;;;;;7.10;3.08;;;19.70;57.20;;;;;;5116031;28;20027;-73
2023/04/12 10:19:32;;;;;;;6.35;3.00;;;19.80;57.30;;;;;;5115557;28;20057;-73
2023/04/12 10:21:59;;;;;;;9.57;3.10;;;19.90;57.30;;;;;;5115877;28;20133;-73
2023/04/12 10:24:26;;;;;;;6.57;3.38;;;20.00;57.10;;;;;;5115594;28;20059;-72
2023/04/12 10:26:54;;;;;;;6.25;2.90;;;20.10;56.90;;;;;;5115673;28;20024;-73
2023/04/12 10:29:27;;;;;;;5.22;2.80;;;20.10;56.80;;;;;;5115532;28;20015;-74
2023/04/12 10:31:58;;;;;;;8.87;2.60;;;20.20;56.60;;;;;;5115244;28;20031;-72
2023/04/12 10:34:28;;;;;;;7.88;3.05;;;20.20;56.40;;;;;;5115573;28;20278;-72
2023/04/12 10:36:56;;;;;;;8.57;2.75;;;20.30;56.40;;;;;;5115187;28;20118;-72
2023/04/12 10:39:42;;;;;;;6.22;2.90;;;20.30;56.50;;;;;;5114302;28;20072;-73
2023/04/12 10:42:29;;;;;;;11.95;3.10;;;20.40;56.50;;;;;;5115516;28;20061;-73
2023/04/12 10:45:30;;;;;;;6.75;2.92;;;20.40;56.00;;;;;;5115152;28;20016;-72
2023/04/12 10:48:00;;;;;;;7.13;2.90;;;20.50;56.10;;;;;;5114624;28;20047;-73
2023/04/12 10:50:31;;;;;;;6.60;2.80;;;20.50;55.90;;;;;;5115121;28;20047;-73
2023/04/12 10:53:12;;;;;;;9.48;2.40;;;20.50;55.70;;;;;;5115134;28;20565;-71
2023/04/12 10:55:47;;;;;;;5.38;2.47;;;20.60;55.50;;;;;;5115127;28;20468;-73
2023/04/12 10:59:04;;;;;;;7.38;2.40;;;20.60;55.40;;;;;;5114888;28;20016;-72
2023/04/12 11:01:30;;;;;;;9.40;2.90;;;20.70;55.10;;;;;;5113429;28;20077;-72
2023/04/12 11:04:05;;;;;;;6.03;2.50;;;20.80;55.60;;;;;;5114976;28;20024;-73
2023/04/12 11:07:08;;;;;;;6.57;2.80;;;20.90;55.70;;;;;;5114269;28;20027;-72
2023/04/12 11:09:43;;;;;;;7.17;3.30;;;20.90;54.70;;;;;;5110569;28;20036;-72
2023/04/12 11:12:08;;;;;;;5.38;2.60;;;20.90;54.90;;;;;;5114653;28;20041;-73
2023/04/12 11:14:35;;;;;;;6.90;2.80;;;21.00;55.00;;;;;;5114983;28;20036;-73
2023/04/12 11:17:07;;;;;;;7.68;3.08;;;21.10;55.20;;;;;;5115262;28;20393;-73
2023/04/12 11:19:36;;;;;;;6.55;3.00;;;21.20;55.00;;;;;;5115047;28;20038;-71
2023/04/12 11:22:07;;;;;;;7.32;2.80;;;21.30;55.00;;;;;;5115328;28;20028;-73
2023/04/12 11:24:37;;;;;;;6.57;3.13;;;21.40;54.80;;;;;;5114768;28;20106;-73
2023/04/12 11:27:03;;;;;;;8.38;3.30;;;21.40;54.60;;;;;;5114759;28;20035;-73
2023/04/12 11:29:31;;;;;;;8.77;3.35;;;21.50;54.70;;;;;;5114286;28;20031;-74
2023/04/12 11:31:57;;;;;;;15.10;3.42;;;21.50;54.90;;;;;;5114513;28;20061;-74
2023/04/12 11:34:24;;;;;;;7.78;3.30;;;21.60;55.80;;;;;;5114618;28;20016;-73
2023/04/12 11:36:53;;;;;;;11.98;4.35;;;21.60;56.20;;;;;;5114506;28;20035;-73
2023/04/12 11:39:20;;;;;;;7.95;3.30;;;21.70;56.50;;;;;;5114196;28;20048;-74
2023/04/12 11:41:47;;;;;;;14.70;3.22;;;21.80;57.10;;;;;;5114616;28;20016;-76
2023/04/12 11:44:17;;;;;;;8.13;3.47;;;21.90;57.00;;;;;;5114189;28;20020;-74
2023/04/12 11:46:44;;;;;;;5.95;2.63;;;22.00;56.80;;;;;;5114436;28;20024;-73
2023/04/12 11:49:14;;;;;;;6.47;2.80;;;22.10;57.10;;;;;;5114435;28;20380;-73
2023/04/12 11:51:40;;;;;;;9.30;2.90;;;22.20;57.30;;;;;;5114230;27;20035;-73
2023/04/12 11:54:06;;;;;;;8.25;2.83;;;22.20;57.30;;;;;;5114259;28;20030;-73
2023/04/12 11:56:32;;;;;;;11.88;2.90;;;22.10;57.40;;;;;;5114237;28;20023;-74
2023/04/12 11:58:58;;;;;;;12.10;3.33;;;22.00;57.30;;;;;;5113861;28;20024;-73
2023/04/12 12:01:24;;;;;;;7.07;2.95;;;22.00;57.70;;;;;;5113981;28;20020;-72
2023/04/12 12:03:50;;;;;;;6.50;2.80;;;22.00;57.90;;;;;;5113935;28;20016;-74
2023/04/12 12:06:16;;;;;;;7.82;2.88;;;22.00;58.00;;;;;;5113727;28;20080;-74
2023/04/12 12:08:42;;;;;;;11.63;3.22;;;22.00;57.90;;;;;;5113935;28;20054;-72
2023/04/12 12:11:08;;;;;;;9.80;3.35;;;22.10;57.90;;;;;;5113755;28;20039;-74
2023/04/12 12:13:50;;;;;;;8.35;3.28;;;22.10;57.80;;;;;;5113442;28;20030;-73
2023/04/12 12:16:17;;;;;;;14.50;3.40;;;22.10;57.90;;;;;;5113611;28;20500;-74
2023/04/12 12:18:44;;;;;;;9.30;2.92;;;22.00;57.90;;;;;;5112390;28;20024;-73
2023/04/12 12:21:12;;;;;;;7.00;2.80;;;22.00;58.30;;;;;;5113451;28;20032;-73
2023/04/12 12:23:40;;;;;;;18.45;3.40;;;22.10;58.70;;;;;;5113510;28;20084;-73
2023/04/12 12:26:06;;;;;;;17.52;3.40;;;22.10;58.80;;;;;;5113322;28;20025;-73
2023/04/12 12:28:39;;;;;;;10.23;2.72;;;22.20;58.70;;;;;;5113334;28;20467;-72
2023/04/12 12:31:18;;;;;;;11.05;3.13;;;22.30;58.90;;;;;;5113386;28;20115;-73
2023/04/12 12:33:44;;;;;;;8.68;3.05;;;22.30;58.80;;;;;;5113109;28;20028;-73
2023/04/12 12:36:10;;;;;;;11.10;2.80;;;22.30;58.70;;;;;;5113127;28;20023;-71
2023/04/12 12:38:36;;;;;;;11.40;3.30;;;22.30;58.60;;;;;;5112911;28;20043;-74
2023/04/12 12:41:22;;;;;;;11.02;3.22;;;22.30;58.70;;;;;;5112930;28;20477;-72
2023/04/12 12:43:50;;;;;;;10.68;2.80;;;22.20;59.10;;;;;;5113008;28;20046;-72